sensor_id;sensor_type;location;lat;lon;timestamp;P1;durP1;ratioP1;P2;durP2;ratioP2
58731;SDS011;44508;44.626;21.182;2022-11-24T00:01:17;22.67;;;13.25;;
58731;SDS011;44508;44.626;21.182;2022-11-24T00:03:44;27.33;;;14.77;;
58731;SDS011;44508;44.626;21.182;2022-11-24T00:06:11;27.95;;;15.13;;
58731;SDS011;44508;44.626;21.182;2022-11-24T00:08:38;28.95;;;16.42;;
58731;SDS011;44508;44.626;21.182;2022-11-24T00:11:05;23.65;;;14.65;;
58731;SDS011;44508;44.626;21.182;2022-11-24T00:13:32;25.55;;;15.68;;
58731;SDS011;44508;44.626;21.182;2022-11-24T00:16:05;21.88;;;13.93;;
58731;SDS011;44508;44.626;21.182;2022-11-24T00:18:31;20.08;;;12.77;;
58731;SDS011;44508;44.626;21.182;2022-11-24T00:20:57;15.65;;;11.02;;
58731;SDS011;44508;44.626;21.182;2022-11-24T00:23:24;18.77;;;11.48;;
58731;SDS011;44508;44.626;21.182;2022-11-24T00:25:50;17.13;;;12.77;;
58731;SDS011;44508;44.626;21.182;2022-11-24T00:28:16;19.15;;;13.82;;
58731;SDS011;44508;44.626;21.182;2022-11-24T00:30:42;23.30;;;15.27;;
58731;SDS011;44508;44.626;21.182;2022-11-24T00:33:08;19.27;;;13.70;;
58731;SDS011;44508;44.626;21.182;2022-11-24T00:35:34;19.08;;;13.88;;
58731;SDS011;44508;44.626;21.182;2022-11-24T00:38:01;18.10;;;13.85;;
58731;SDS011;44508;44.626;21.182;2022-11-24T00:40:27;18.50;;;13.15;;
58731;SDS011;44508;44.626;21.182;2022-11-24T00:42:53;18.20;;;13.30;;
58731;SDS011;44508;44.626;21.182;2022-11-24T00:45:19;16.27;;;12.63;;
58731;SDS011;44508;44.626;21.182;2022-11-24T00:47:45;19.05;;;12.80;;
58731;SDS011;44508;44.626;21.182;2022-11-24T00:50:11;15.85;;;12.23;;
58731;SDS011;44508;44.626;21.182;2022-11-24T00:52:37;15.07;;;12.13;;
58731;SDS011;44508;44.626;21.182;2022-11-24T00:55:03;19.02;;;12.63;;
58731;SDS011;44508;44.626;21.182;2022-11-24T00:57:29;15.57;;;11.25;;
58731;SDS011;44508;44.626;21.182;2022-11-24T00:59:55;13.98;;;11.20;;
58731;SDS011;44508;44.626;21.182;2022-11-24T01:02:21;14.95;;;11.65;;
58731;SDS011;44508;44.626;21.182;2022-11-24T01:04:47;14.82;;;12.07;;
58731;SDS011;44508;44.626;21.182;2022-11-24T01:07:13;17.33;;;12.98;;
58731;SDS011;44508;44.626;21.182;2022-11-24T01:09:39;16.00;;;11.90;;
58731;SDS011;44508;44.626;21.182;2022-11-24T01:12:07;18.52;;;13.23;;
58731;SDS011;44508;44.626;21.182;2022-11-24T01:14:33;16.35;;;12.43;;
58731;SDS011;44508;44.626;21.182;2022-11-24T01:16:59;18.30;;;12.75;;
58731;SDS011;44508;44.626;21.182;2022-11-24T01:19:25;17.45;;;12.10;;
58731;SDS011;44508;44.626;21.182;2022-11-24T01:21:51;16.67;;;12.23;;
58731;SDS011;44508;44.626;21.182;2022-11-24T01:24:17;18.08;;;12.77;;
58731;SDS011;44508;44.626;21.182;2022-11-24T01:26:43;14.80;;;11.32;;
58731;SDS011;44508;44.626;21.182;2022-11-24T01:29:10;15.68;;;12.57;;
58731;SDS011;44508;44.626;21.182;2022-11-24T01:31:36;14.95;;;11.90;;
58731;SDS011;44508;44.626;21.182;2022-11-24T01:34:02;16.02;;;12.02;;
58731;SDS011;44508;44.626;21.182;2022-11-24T01:36:28;15.45;;;12.30;;
58731;SDS011;44508;44.626;21.182;2022-11-24T01:38:54;13.90;;;11.48;;
58731;SDS011;44508;44.626;21.182;2022-11-24T01:41:21;17.60;;;11.60;;
58731;SDS011;44508;44.626;21.182;2022-11-24T01:43:48;15.65;;;11.60;;
58731;SDS011;44508;44.626;21.182;2022-11-24T01:46:30;14.00;;;11.82;;
58731;SDS011;44508;44.626;21.182;2022-11-24T01:51:28;16.65;;;14.32;;
58731;SDS011;44508;44.626;21.182;2022-11-24T01:54:00;19.15;;;15.05;;
58731;SDS011;44508;44.626;21.182;2022-11-24T01:56:27;19.98;;;15.20;;
58731;SDS011;44508;44.626;21.182;2022-11-24T01:58:55;19.27;;;15.40;;
58731;SDS011;44508;44.626;21.182;2022-11-24T02:01:22;22.65;;;17.02;;
58731;SDS011;44508;44.626;21.182;2022-11-24T02:03:48;22.10;;;17.25;;
58731;SDS011;44508;44.626;21.182;2022-11-24T02:06:19;22.23;;;17.17;;
58731;SDS011;44508;44.626;21.182;2022-11-24T02:08:47;25.92;;;19.00;;
58731;SDS011;44508;44.626;21.182;2022-11-24T02:11:15;29.27;;;20.10;;
58731;SDS011;44508;44.626;21.182;2022-11-24T02:13:42;22.73;;;17.98;;
58731;SDS011;44508;44.626;21.182;2022-11-24T02:16:09;23.23;;;17.67;;
58731;SDS011;44508;44.626;21.182;2022-11-24T02:18:36;22.88;;;18.05;;
58731;SDS011;44508;44.626;21.182;2022-11-24T02:21:03;21.45;;;16.25;;
58731;SDS011;44508;44.626;21.182;2022-11-24T02:28:46;19.85;;;15.32;;
58731;SDS011;44508;44.626;21.182;2022-11-24T02:31:13;20.50;;;14.70;;
58731;SDS011;44508;44.626;21.182;2022-11-24T02:33:39;17.90;;;14.35;;
58731;SDS011;44508;44.626;21.182;2022-11-24T02:36:05;17.60;;;14.70;;
58731;SDS011;44508;44.626;21.182;2022-11-24T02:38:32;20.48;;;16.73;;
58731;SDS011;44508;44.626;21.182;2022-11-24T02:40:59;20.10;;;17.63;;
58731;SDS011;44508;44.626;21.182;2022-11-24T02:43:27;21.00;;;18.52;;
58731;SDS011;44508;44.626;21.182;2022-11-24T02:45:55;26.10;;;20.60;;
58731;SDS011;44508;44.626;21.182;2022-11-24T02:48:21;25.17;;;20.75;;
58731;SDS011;44508;44.626;21.182;2022-11-24T02:50:47;25.20;;;22.13;;
58731;SDS011;44508;44.626;21.182;2022-11-24T02:53:13;27.02;;;22.25;;
58731;SDS011;44508;44.626;21.182;2022-11-24T02:55:39;26.17;;;22.02;;
58731;SDS011;44508;44.626;21.182;2022-11-24T02:58:05;30.13;;;23.27;;
58731;SDS011;44508;44.626;21.182;2022-11-24T03:00:31;26.73;;;21.50;;
58731;SDS011;44508;44.626;21.182;2022-11-24T03:02:57;26.50;;;20.67;;
58731;SDS011;44508;44.626;21.182;2022-11-24T03:05:23;24.90;;;19.98;;
58731;SDS011;44508;44.626;21.182;2022-11-24T03:07:49;26.20;;;21.40;;
58731;SDS011;44508;44.626;21.182;2022-11-24T03:10:16;25.27;;;19.70;;
58731;SDS011;44508;44.626;21.182;2022-11-24T03:12:42;23.50;;;18.77;;
58731;SDS011;44508;44.626;21.182;2022-11-24T03:15:08;26.40;;;20.98;;
58731;SDS011;44508;44.626;21.182;2022-11-24T03:17:34;24.35;;;19.73;;
58731;SDS011;44508;44.626;21.182;2022-11-24T03:20:00;23.65;;;19.75;;
58731;SDS011;44508;44.626;21.182;2022-11-24T03:22:26;25.90;;;19.55;;
58731;SDS011;44508;44.626;21.182;2022-11-24T03:24:53;22.08;;;17.77;;
58731;SDS011;44508;44.626;21.182;2022-11-24T03:27:19;22.30;;;17.65;;
58731;SDS011;44508;44.626;21.182;2022-11-24T03:29:45;23.40;;;19.20;;
58731;SDS011;44508;44.626;21.182;2022-11-24T03:32:11;23.27;;;18.65;;
58731;SDS011;44508;44.626;21.182;2022-11-24T03:34:37;24.85;;;17.33;;
58731;SDS011;44508;44.626;21.182;2022-11-24T03:37:03;25.23;;;18.00;;
58731;SDS011;44508;44.626;21.182;2022-11-24T03:39:29;27.13;;;18.08;;
58731;SDS011;44508;44.626;21.182;2022-11-24T03:41:55;24.00;;;17.75;;
58731;SDS011;44508;44.626;21.182;2022-11-24T03:44:21;23.27;;;16.33;;
58731;SDS011;44508;44.626;21.182;2022-11-24T03:46:47;24.33;;;17.23;;
58731;SDS011;44508;44.626;21.182;2022-11-24T03:49:13;22.38;;;16.42;;
58731;SDS011;44508;44.626;21.182;2022-11-24T03:51:39;21.88;;;17.33;;
58731;SDS011;44508;44.626;21.182;2022-11-24T03:54:05;22.83;;;16.83;;
58731;SDS011;44508;44.626;21.182;2022-11-24T03:56:31;23.75;;;17.88;;
58731;SDS011;44508;44.626;21.182;2022-11-24T03:58:57;24.13;;;17.80;;
58731;SDS011;44508;44.626;21.182;2022-11-24T04:01:23;25.63;;;18.65;;
58731;SDS011;44508;44.626;21.182;2022-11-24T04:03:49;74.75;;;19.42;;
58731;SDS011;44508;44.626;21.182;2022-11-24T04:06:15;22.88;;;17.75;;
58731;SDS011;44508;44.626;21.182;2022-11-24T04:08:41;27.48;;;17.48;;
58731;SDS011;44508;44.626;21.182;2022-11-24T04:11:07;25.25;;;17.92;;
58731;SDS011;44508;44.626;21.182;2022-11-24T04:13:53;24.00;;;17.88;;
58731;SDS011;44508;44.626;21.182;2022-11-24T04:16:19;23.95;;;17.08;;
58731;SDS011;44508;44.626;21.182;2022-11-24T04:18:45;23.40;;;17.20;;
58731;SDS011;44508;44.626;21.182;2022-11-24T04:21:11;21.90;;;16.67;;
58731;SDS011;44508;44.626;21.182;2022-11-24T04:23:37;20.52;;;16.58;;
58731;SDS011;44508;44.626;21.182;2022-11-24T04:26:03;24.25;;;18.33;;
58731;SDS011;44508;44.626;21.182;2022-11-24T04:28:29;21.42;;;16.60;;
58731;SDS011;44508;44.626;21.182;2022-11-24T04:31:00;21.85;;;16.88;;
58731;SDS011;44508;44.626;21.182;2022-11-24T04:33:26;19.98;;;14.70;;
58731;SDS011;44508;44.626;21.182;2022-11-24T04:35:52;21.88;;;16.42;;
58731;SDS011;44508;44.626;21.182;2022-11-24T04:38:18;20.83;;;16.70;;
58731;SDS011;44508;44.626;21.182;2022-11-24T04:40:44;19.98;;;15.60;;
58731;SDS011;44508;44.626;21.182;2022-11-24T04:43:10;20.45;;;15.48;;
58731;SDS011;44508;44.626;21.182;2022-11-24T04:45:36;19.65;;;15.98;;
58731;SDS011;44508;44.626;21.182;2022-11-24T04:48:03;21.55;;;16.17;;
58731;SDS011;44508;44.626;21.182;2022-11-24T04:50:29;23.13;;;15.38;;
58731;SDS011;44508;44.626;21.182;2022-11-24T04:52:55;17.75;;;15.15;;
58731;SDS011;44508;44.626;21.182;2022-11-24T04:55:21;19.42;;;15.20;;
58731;SDS011;44508;44.626;21.182;2022-11-24T04:57:47;20.77;;;16.98;;
58731;SDS011;44508;44.626;21.182;2022-11-24T05:00:14;18.40;;;15.13;;
58731;SDS011;44508;44.626;21.182;2022-11-24T05:02:40;20.27;;;15.95;;
58731;SDS011;44508;44.626;21.182;2022-11-24T05:05:06;18.85;;;16.20;;
58731;SDS011;44508;44.626;21.182;2022-11-24T05:07:32;21.85;;;16.83;;
58731;SDS011;44508;44.626;21.182;2022-11-24T05:09:58;23.38;;;17.17;;
58731;SDS011;44508;44.626;21.182;2022-11-24T05:12:43;22.63;;;17.33;;
58731;SDS011;44508;44.626;21.182;2022-11-24T05:15:09;22.13;;;17.45;;
58731;SDS011;44508;44.626;21.182;2022-11-24T05:17:36;22.23;;;16.77;;
58731;SDS011;44508;44.626;21.182;2022-11-24T05:20:03;23.25;;;17.83;;
58731;SDS011;44508;44.626;21.182;2022-11-24T05:22:30;20.77;;;16.10;;
58731;SDS011;44508;44.626;21.182;2022-11-24T05:24:56;23.15;;;17.58;;
58731;SDS011;44508;44.626;21.182;2022-11-24T05:27:22;20.48;;;16.73;;
58731;SDS011;44508;44.626;21.182;2022-11-24T05:29:49;22.02;;;16.42;;
58731;SDS011;44508;44.626;21.182;2022-11-24T05:32:15;23.23;;;16.77;;
58731;SDS011;44508;44.626;21.182;2022-11-24T05:34:41;23.27;;;16.98;;
58731;SDS011;44508;44.626;21.182;2022-11-24T05:37:07;26.33;;;18.30;;
58731;SDS011;44508;44.626;21.182;2022-11-24T05:39:34;20.55;;;17.40;;
58731;SDS011;44508;44.626;21.182;2022-11-24T05:42:00;24.33;;;18.35;;
58731;SDS011;44508;44.626;21.182;2022-11-24T05:44:50;22.77;;;17.35;;
58731;SDS011;44508;44.626;21.182;2022-11-24T05:47:16;26.50;;;17.73;;
58731;SDS011;44508;44.626;21.182;2022-11-24T05:49:42;28.42;;;18.42;;
58731;SDS011;44508;44.626;21.182;2022-11-24T05:52:08;25.00;;;18.00;;
58731;SDS011;44508;44.626;21.182;2022-11-24T05:54:35;28.63;;;19.35;;
58731;SDS011;44508;44.626;21.182;2022-11-24T05:57:01;29.02;;;20.77;;
58731;SDS011;44508;44.626;21.182;2022-11-24T05:59:27;29.17;;;21.20;;
58731;SDS011;44508;44.626;21.182;2022-11-24T06:01:53;28.30;;;20.13;;
58731;SDS011;44508;44.626;21.182;2022-11-24T06:04:19;26.67;;;18.85;;
58731;SDS011;44508;44.626;21.182;2022-11-24T06:06:46;28.40;;;21.00;;
58731;SDS011;44508;44.626;21.182;2022-11-24T06:09:12;30.88;;;21.17;;
58731;SDS011;44508;44.626;21.182;2022-11-24T06:11:38;30.02;;;21.92;;
58731;SDS011;44508;44.626;21.182;2022-11-24T06:14:04;34.38;;;22.15;;
58731;SDS011;44508;44.626;21.182;2022-11-24T06:16:30;35.83;;;23.27;;
58731;SDS011;44508;44.626;21.182;2022-11-24T06:18:56;36.75;;;23.45;;
58731;SDS011;44508;44.626;21.182;2022-11-24T06:21:22;44.08;;;28.70;;
58731;SDS011;44508;44.626;21.182;2022-11-24T06:23:48;44.72;;;27.98;;
58731;SDS011;44508;44.626;21.182;2022-11-24T06:26:14;42.03;;;27.05;;
58731;SDS011;44508;44.626;21.182;2022-11-24T06:28:42;45.40;;;28.67;;
58731;SDS011;44508;44.626;21.182;2022-11-24T06:31:08;45.13;;;29.08;;
58731;SDS011;44508;44.626;21.182;2022-11-24T06:33:35;39.95;;;27.23;;
58731;SDS011;44508;44.626;21.182;2022-11-24T06:36:02;44.30;;;28.83;;
58731;SDS011;44508;44.626;21.182;2022-11-24T06:38:29;43.15;;;26.98;;
58731;SDS011;44508;44.626;21.182;2022-11-24T06:41:02;42.47;;;28.75;;
58731;SDS011;44508;44.626;21.182;2022-11-24T06:43:30;39.33;;;27.13;;
58731;SDS011;44508;44.626;21.182;2022-11-24T06:45:56;47.42;;;30.42;;
58731;SDS011;44508;44.626;21.182;2022-11-24T06:48:23;44.50;;;30.40;;
58731;SDS011;44508;44.626;21.182;2022-11-24T06:50:49;44.67;;;29.02;;
58731;SDS011;44508;44.626;21.182;2022-11-24T06:53:15;42.40;;;28.88;;
58731;SDS011;44508;44.626;21.182;2022-11-24T06:55:41;46.38;;;30.25;;
58731;SDS011;44508;44.626;21.182;2022-11-24T06:58:08;50.08;;;31.30;;
58731;SDS011;44508;44.626;21.182;2022-11-24T07:00:37;50.17;;;32.42;;
58731;SDS011;44508;44.626;21.182;2022-11-24T07:03:03;49.38;;;31.42;;
58731;SDS011;44508;44.626;21.182;2022-11-24T07:05:29;51.25;;;30.48;;
58731;SDS011;44508;44.626;21.182;2022-11-24T07:07:57;44.65;;;28.38;;
58731;SDS011;44508;44.626;21.182;2022-11-24T07:10:23;47.60;;;29.05;;
58731;SDS011;44508;44.626;21.182;2022-11-24T07:12:49;42.38;;;27.75;;
58731;SDS011;44508;44.626;21.182;2022-11-24T07:15:15;35.85;;;25.48;;
58731;SDS011;44508;44.626;21.182;2022-11-24T07:17:41;37.50;;;23.70;;
58731;SDS011;44508;44.626;21.182;2022-11-24T07:20:07;38.33;;;23.90;;
58731;SDS011;44508;44.626;21.182;2022-11-24T07:22:34;34.35;;;22.85;;
58731;SDS011;44508;44.626;21.182;2022-11-24T07:25:00;32.53;;;22.33;;
58731;SDS011;44508;44.626;21.182;2022-11-24T07:27:26;29.83;;;20.33;;
58731;SDS011;44508;44.626;21.182;2022-11-24T07:29:54;31.38;;;20.88;;
58731;SDS011;44508;44.626;21.182;2022-11-24T07:32:20;34.17;;;20.42;;
58731;SDS011;44508;44.626;21.182;2022-11-24T07:34:46;32.97;;;22.33;;
58731;SDS011;44508;44.626;21.182;2022-11-24T07:37:12;33.67;;;20.73;;
58731;SDS011;44508;44.626;21.182;2022-11-24T07:39:38;32.88;;;21.15;;
58731;SDS011;44508;44.626;21.182;2022-11-24T07:42:04;31.65;;;22.15;;
58731;SDS011;44508;44.626;21.182;2022-11-24T07:44:32;30.08;;;21.90;;
58731;SDS011;44508;44.626;21.182;2022-11-24T07:46:58;30.77;;;19.83;;
58731;SDS011;44508;44.626;21.182;2022-11-24T07:49:24;28.45;;;19.90;;
58731;SDS011;44508;44.626;21.182;2022-11-24T07:51:50;30.90;;;21.17;;
58731;SDS011;44508;44.626;21.182;2022-11-24T07:54:16;27.40;;;18.65;;
58731;SDS011;44508;44.626;21.182;2022-11-24T07:56:42;37.75;;;21.33;;
58731;SDS011;44508;44.626;21.182;2022-11-24T07:59:08;26.50;;;18.55;;
58731;SDS011;44508;44.626;21.182;2022-11-24T08:01:34;33.70;;;19.33;;
58731;SDS011;44508;44.626;21.182;2022-11-24T08:04:00;31.75;;;20.65;;
58731;SDS011;44508;44.626;21.182;2022-11-24T08:06:27;31.83;;;22.05;;
58731;SDS011;44508;44.626;21.182;2022-11-24T08:08:53;27.77;;;20.10;;
58731;SDS011;44508;44.626;21.182;2022-11-24T08:11:20;36.55;;;23.50;;
58731;SDS011;44508;44.626;21.182;2022-11-24T08:13:46;34.78;;;22.60;;
58731;SDS011;44508;44.626;21.182;2022-11-24T08:16:13;36.05;;;22.45;;
58731;SDS011;44508;44.626;21.182;2022-11-24T08:18:40;40.72;;;24.15;;
58731;SDS011;44508;44.626;21.182;2022-11-24T08:21:07;46.90;;;29.05;;
58731;SDS011;44508;44.626;21.182;2022-11-24T08:23:37;43.55;;;25.55;;
58731;SDS011;44508;44.626;21.182;2022-11-24T08:26:07;46.25;;;28.17;;
58731;SDS011;44508;44.626;21.182;2022-11-24T08:28:34;40.72;;;26.48;;
58731;SDS011;44508;44.626;21.182;2022-11-24T08:31:06;33.92;;;22.83;;
58731;SDS011;44508;44.626;21.182;2022-11-24T08:33:32;34.22;;;23.38;;
58731;SDS011;44508;44.626;21.182;2022-11-24T08:36:02;32.70;;;22.98;;
58731;SDS011;44508;44.626;21.182;2022-11-24T08:38:28;36.00;;;22.73;;
58731;SDS011;44508;44.626;21.182;2022-11-24T08:40:58;32.97;;;22.70;;
58731;SDS011;44508;44.626;21.182;2022-11-24T08:43:24;33.75;;;19.88;;
58731;SDS011;44508;44.626;21.182;2022-11-24T08:45:50;28.38;;;19.15;;
58731;SDS011;44508;44.626;21.182;2022-11-24T08:48:16;27.10;;;18.77;;
58731;SDS011;44508;44.626;21.182;2022-11-24T08:50:42;26.05;;;18.10;;
58731;SDS011;44508;44.626;21.182;2022-11-24T08:53:08;22.15;;;15.50;;
58731;SDS011;44508;44.626;21.182;2022-11-24T08:55:34;23.60;;;16.33;;
58731;SDS011;44508;44.626;21.182;2022-11-24T08:58:00;31.27;;;19.60;;
58731;SDS011;44508;44.626;21.182;2022-11-24T09:00:26;31.50;;;19.23;;
58731;SDS011;44508;44.626;21.182;2022-11-24T09:02:53;35.05;;;23.33;;
58731;SDS011;44508;44.626;21.182;2022-11-24T09:05:19;37.53;;;23.98;;
58731;SDS011;44508;44.626;21.182;2022-11-24T09:07:46;32.38;;;21.58;;
58731;SDS011;44508;44.626;21.182;2022-11-24T09:10:12;39.20;;;25.50;;
58731;SDS011;44508;44.626;21.182;2022-11-24T09:12:38;29.75;;;18.65;;
58731;SDS011;44508;44.626;21.182;2022-11-24T09:15:04;25.58;;;16.42;;
58731;SDS011;44508;44.626;21.182;2022-11-24T09:17:32;30.92;;;19.23;;
58731;SDS011;44508;44.626;21.182;2022-11-24T09:19:58;33.47;;;19.42;;
58731;SDS011;44508;44.626;21.182;2022-11-24T09:22:24;31.63;;;20.40;;
58731;SDS011;44508;44.626;21.182;2022-11-24T09:24:50;31.27;;;19.77;;
58731;SDS011;44508;44.626;21.182;2022-11-24T09:27:16;34.83;;;19.95;;
58731;SDS011;44508;44.626;21.182;2022-11-24T09:29:42;31.55;;;19.58;;
58731;SDS011;44508;44.626;21.182;2022-11-24T09:32:08;27.02;;;16.83;;
58731;SDS011;44508;44.626;21.182;2022-11-24T09:34:34;32.92;;;20.15;;
58731;SDS011;44508;44.626;21.182;2022-11-24T09:37:00;35.08;;;21.50;;
58731;SDS011;44508;44.626;21.182;2022-11-24T09:39:26;40.22;;;23.77;;
58731;SDS011;44508;44.626;21.182;2022-11-24T09:47:15;30.10;;;16.95;;
58731;SDS011;44508;44.626;21.182;2022-11-24T09:52:10;27.50;;;17.55;;
58731;SDS011;44508;44.626;21.182;2022-11-24T09:54:41;32.17;;;18.50;;
58731;SDS011;44508;44.626;21.182;2022-11-24T09:57:11;35.03;;;20.30;;
58731;SDS011;44508;44.626;21.182;2022-11-24T09:59:38;36.30;;;21.58;;
58731;SDS011;44508;44.626;21.182;2022-11-24T10:02:07;30.30;;;18.33;;
58731;SDS011;44508;44.626;21.182;2022-11-24T10:04:38;28.05;;;18.92;;
58731;SDS011;44508;44.626;21.182;2022-11-24T10:22:38;49.45;;;31.38;;
58731;SDS011;44508;44.626;21.182;2022-11-24T10:25:08;43.30;;;25.17;;
58731;SDS011;44508;44.626;21.182;2022-11-24T10:27:43;34.22;;;23.33;;
58731;SDS011;44508;44.626;21.182;2022-11-24T10:30:17;30.27;;;20.20;;
58731;SDS011;44508;44.626;21.182;2022-11-24T10:32:47;32.55;;;20.88;;
58731;SDS011;44508;44.626;21.182;2022-11-24T10:35:18;32.22;;;20.58;;
58731;SDS011;44508;44.626;21.182;2022-11-24T10:37:53;33.78;;;21.80;;
58731;SDS011;44508;44.626;21.182;2022-11-24T10:40:38;32.67;;;20.20;;
58731;SDS011;44508;44.626;21.182;2022-11-24T10:43:07;33.92;;;21.23;;
58731;SDS011;44508;44.626;21.182;2022-11-24T10:45:34;30.98;;;20.73;;
58731;SDS011;44508;44.626;21.182;2022-11-24T10:48:02;30.20;;;18.77;;
58731;SDS011;44508;44.626;21.182;2022-11-24T10:50:30;31.23;;;20.30;;
58731;SDS011;44508;44.626;21.182;2022-11-24T10:58:16;24.52;;;14.75;;
58731;SDS011;44508;44.626;21.182;2022-11-24T11:00:42;30.60;;;18.70;;
58731;SDS011;44508;44.626;21.182;2022-11-24T11:03:15;26.33;;;18.02;;
58731;SDS011;44508;44.626;21.182;2022-11-24T11:05:42;29.40;;;18.05;;
58731;SDS011;44508;44.626;21.182;2022-11-24T11:10:38;23.58;;;15.68;;
58731;SDS011;44508;44.626;21.182;2022-11-24T11:13:24;27.55;;;18.13;;
58731;SDS011;44508;44.626;21.182;2022-11-24T11:15:50;25.20;;;15.20;;
58731;SDS011;44508;44.626;21.182;2022-11-24T11:18:16;24.00;;;14.40;;
58731;SDS011;44508;44.626;21.182;2022-11-24T11:20:53;17.02;;;11.20;;
58731;SDS011;44508;44.626;21.182;2022-11-24T11:23:24;20.45;;;13.38;;
58731;SDS011;44508;44.626;21.182;2022-11-24T11:25:58;25.50;;;16.85;;
58731;SDS011;44508;44.626;21.182;2022-11-24T11:28:37;22.08;;;13.57;;
58731;SDS011;44508;44.626;21.182;2022-11-24T11:31:04;23.65;;;15.20;;
58731;SDS011;44508;44.626;21.182;2022-11-24T11:33:31;30.92;;;18.23;;
58731;SDS011;44508;44.626;21.182;2022-11-24T11:36:00;31.98;;;20.08;;
58731;SDS011;44508;44.626;21.182;2022-11-24T11:38:32;32.58;;;19.98;;
58731;SDS011;44508;44.626;21.182;2022-11-24T11:41:00;24.33;;;17.08;;
58731;SDS011;44508;44.626;21.182;2022-11-24T11:43:28;28.88;;;17.75;;
58731;SDS011;44508;44.626;21.182;2022-11-24T11:46:02;32.50;;;20.13;;
58731;SDS011;44508;44.626;21.182;2022-11-24T11:48:33;33.37;;;20.90;;
58731;SDS011;44508;44.626;21.182;2022-11-24T11:53:38;34.15;;;20.33;;
58731;SDS011;44508;44.626;21.182;2022-11-24T11:58:55;41.65;;;23.55;;
58731;SDS011;44508;44.626;21.182;2022-11-24T12:09:28;34.83;;;21.40;;
58731;SDS011;44508;44.626;21.182;2022-11-24T12:22:44;27.65;;;15.68;;
58731;SDS011;44508;44.626;21.182;2022-11-24T12:25:22;31.55;;;16.60;;
58731;SDS011;44508;44.626;21.182;2022-11-24T12:36:22;24.02;;;13.80;;
58731;SDS011;44508;44.626;21.182;2022-11-24T12:39:00;19.77;;;12.30;;
58731;SDS011;44508;44.626;21.182;2022-11-24T12:41:53;18.90;;;11.20;;
58731;SDS011;44508;44.626;21.182;2022-11-24T12:47:08;26.25;;;14.70;;
58731;SDS011;44508;44.626;21.182;2022-11-24T12:52:16;28.80;;;17.08;;
58731;SDS011;44508;44.626;21.182;2022-11-24T12:54:44;25.65;;;16.15;;
58731;SDS011;44508;44.626;21.182;2022-11-24T12:57:43;31.80;;;17.58;;
58731;SDS011;44508;44.626;21.182;2022-11-24T13:00:06;34.58;;;21.10;;
58731;SDS011;44508;44.626;21.182;2022-11-24T13:02:43;31.52;;;19.33;;
58731;SDS011;44508;44.626;21.182;2022-11-24T13:07:46;23.42;;;14.98;;
58731;SDS011;44508;44.626;21.182;2022-11-24T13:12:58;29.67;;;16.63;;
58731;SDS011;44508;44.626;21.182;2022-11-24T13:15:24;29.58;;;17.65;;
58731;SDS011;44508;44.626;21.182;2022-11-24T13:17:51;33.92;;;17.35;;
58731;SDS011;44508;44.626;21.182;2022-11-24T13:25:34;26.80;;;15.88;;
58731;SDS011;44508;44.626;21.182;2022-11-24T13:27:59;48.70;;;19.92;;
58731;SDS011;44508;44.626;21.182;2022-11-24T13:33:02;29.63;;;17.25;;
58731;SDS011;44508;44.626;21.182;2022-11-24T13:41:09;22.90;;;14.10;;
58731;SDS011;44508;44.626;21.182;2022-11-24T13:43:35;25.92;;;14.05;;
58731;SDS011;44508;44.626;21.182;2022-11-24T13:46:01;25.08;;;15.30;;
58731;SDS011;44508;44.626;21.182;2022-11-24T13:53:35;27.23;;;16.02;;
58731;SDS011;44508;44.626;21.182;2022-11-24T13:56:07;33.80;;;19.65;;
58731;SDS011;44508;44.626;21.182;2022-11-24T14:06:31;68.20;;;39.22;;
58731;SDS011;44508;44.626;21.182;2022-11-24T14:08:59;68.32;;;40.53;;
58731;SDS011;44508;44.626;21.182;2022-11-24T14:11:26;67.60;;;41.50;;
58731;SDS011;44508;44.626;21.182;2022-11-24T14:13:53;53.08;;;32.78;;
58731;SDS011;44508;44.626;21.182;2022-11-24T14:16:22;45.50;;;29.20;;
58731;SDS011;44508;44.626;21.182;2022-11-24T14:18:49;40.05;;;24.88;;
58731;SDS011;44508;44.626;21.182;2022-11-24T14:23:46;41.90;;;24.10;;
58731;SDS011;44508;44.626;21.182;2022-11-24T14:26:18;35.67;;;23.08;;
58731;SDS011;44508;44.626;21.182;2022-11-24T14:28:45;38.58;;;24.58;;
58731;SDS011;44508;44.626;21.182;2022-11-24T14:33:44;40.08;;;25.58;;
58731;SDS011;44508;44.626;21.182;2022-11-24T14:36:13;41.72;;;27.38;;
58731;SDS011;44508;44.626;21.182;2022-11-24T14:38:40;48.85;;;30.88;;
58731;SDS011;44508;44.626;21.182;2022-11-24T14:41:39;39.10;;;25.13;;
58731;SDS011;44508;44.626;21.182;2022-11-24T14:44:05;34.13;;;20.83;;
58731;SDS011;44508;44.626;21.182;2022-11-24T14:46:32;31.42;;;19.83;;
58731;SDS011;44508;44.626;21.182;2022-11-24T14:48:58;35.67;;;21.08;;
58731;SDS011;44508;44.626;21.182;2022-11-24T14:51:29;31.52;;;20.58;;
58731;SDS011;44508;44.626;21.182;2022-11-24T14:53:57;29.52;;;18.98;;
58731;SDS011;44508;44.626;21.182;2022-11-24T14:58:50;35.85;;;21.13;;
58731;SDS011;44508;44.626;21.182;2022-11-24T15:06:37;39.45;;;23.33;;
58731;SDS011;44508;44.626;21.182;2022-11-24T15:09:03;41.80;;;23.30;;
58731;SDS011;44508;44.626;21.182;2022-11-24T15:11:30;38.88;;;23.52;;
58731;SDS011;44508;44.626;21.182;2022-11-24T15:13:56;40.83;;;24.13;;
58731;SDS011;44508;44.626;21.182;2022-11-24T15:16:23;44.05;;;27.17;;
58731;SDS011;44508;44.626;21.182;2022-11-24T15:18:55;69.18;;;41.63;;
58731;SDS011;44508;44.626;21.182;2022-11-24T15:21:28;107.05;;;59.53;;
58731;SDS011;44508;44.626;21.182;2022-11-24T15:26:30;131.60;;;70.80;;
58731;SDS011;44508;44.626;21.182;2022-11-24T15:28:56;104.78;;;58.80;;
58731;SDS011;44508;44.626;21.182;2022-11-24T15:31:22;98.63;;;56.13;;
58731;SDS011;44508;44.626;21.182;2022-11-24T15:33:49;70.57;;;41.78;;
58731;SDS011;44508;44.626;21.182;2022-11-24T15:36:15;63.85;;;37.65;;
58731;SDS011;44508;44.626;21.182;2022-11-24T15:38:41;51.53;;;31.45;;
58731;SDS011;44508;44.626;21.182;2022-11-24T15:41:20;49.58;;;30.85;;
58731;SDS011;44508;44.626;21.182;2022-11-24T15:43:46;55.80;;;33.45;;
58731;SDS011;44508;44.626;21.182;2022-11-24T15:46:12;63.47;;;33.85;;
58731;SDS011;44508;44.626;21.182;2022-11-24T15:48:38;61.75;;;35.92;;
58731;SDS011;44508;44.626;21.182;2022-11-24T15:51:05;63.67;;;36.50;;
58731;SDS011;44508;44.626;21.182;2022-11-24T15:53:33;60.97;;;35.53;;
58731;SDS011;44508;44.626;21.182;2022-11-24T15:56:01;58.90;;;36.03;;
58731;SDS011;44508;44.626;21.182;2022-11-24T15:58:27;59.20;;;34.38;;
58731;SDS011;44508;44.626;21.182;2022-11-24T16:00:53;62.78;;;34.83;;
58731;SDS011;44508;44.626;21.182;2022-11-24T16:03:20;62.33;;;35.90;;
58731;SDS011;44508;44.626;21.182;2022-11-24T16:05:46;65.90;;;37.90;;
58731;SDS011;44508;44.626;21.182;2022-11-24T16:08:13;71.43;;;40.45;;
58731;SDS011;44508;44.626;21.182;2022-11-24T16:10:40;66.60;;;40.75;;
58731;SDS011;44508;44.626;21.182;2022-11-24T16:13:06;64.80;;;41.13;;
58731;SDS011;44508;44.626;21.182;2022-11-24T16:15:33;58.15;;;36.08;;